Norfolk — WDG2147 — position and weather

sailwx.info

Track history (hours):
 
Tides and Currents Weather Stations Pressure Air Temp Water Temp Dewpoint Dewpoint Depression Visibility Wind Speed Wind Dir Waves Ship Positions

Norfolk

Owner: Virginia Pilot Boat Corporation, Virginia Beach, VA. More information available from US FCC via Universal Licensing System and Coast Guard Vessel Documentation Center.

Last reported at 2016-Dec-05 20:25 UTC. Time now 2016-Dec-06 12:15 UTC.
Position N 36°54' W 076°05'.

Length 18 m; draft 1.5 m.

Type: Pilot. MMSI: 367512630.

Date/timePositionNaut miles runAvg speedWind from/ knotsBaromVisibWave heightAir tempDewpointWater temp
2016-Dec-05 20:25N 36°54' W 076°05'2 2.8
2016-Dec-05 19:33N 36°56' W 076°03'4 3.7
2016-Dec-05 18:33N 36°56' W 075°58'6 5.9
2016-Dec-05 17:34N 36°54' W 076°05'0 0.0
2016-Dec-05 16:33N 36°54' W 076°05'0 0.0
2016-Dec-05 15:33N 36°54' W 076°05'0 0.0
2016-Dec-05 14:33N 36°54' W 076°05'0 0.0
2016-Dec-05 13:33N 36°54' W 076°05'0 0.0
2016-Dec-05 12:34N 36°54' W 076°05'0 0.0
2016-Dec-05 09:30N 36°54' W 076°05'1 0.9
2016-Dec-05 08:27N 36°55' W 076°05'1 0.2
2016-Dec-05 02:12N 36°54' W 076°06'0 0.0
2016-Dec-04 21:34N 36°54' W 076°05'0 0.0
2016-Dec-04 20:33N 36°54' W 076°05'6 1.1
2016-Dec-04 15:27N 36°59' W 076°02'6 2.6
2016-Dec-04 13:15N 36°54' W 076°05'0 0.0
2016-Dec-04 06:16N 36°54' W 076°05'0 0.0
2016-Dec-04 04:26N 36°54' W 076°05'3 1.1
2016-Dec-04 01:19N 36°57' W 076°02'3 1.2
2016-Dec-03 22:20N 36°54' W 076°05'0 0.1
2016-Dec-03 21:32N 36°54' W 076°05'0 0.0
2016-Dec-03 20:33N 36°54' W 076°05'0 0.0
2016-Dec-03 17:33N 36°54' W 076°05'0 0.0
2016-Dec-03 16:33N 36°54' W 076°05'4 3.6
2016-Dec-03 15:33N 36°57' W 076°03'4 3.5
2016-Dec-03 14:33N 36°54' W 076°05'0 0.0
2016-Dec-03 13:31N 36°54' W 076°05'1 0.7
2016-Dec-03 12:33N 36°55' W 076°05'0 0.0
2016-Dec-03 02:25N 36°55' W 076°05'7 7.3
2016-Dec-03 01:25N 36°56' W 075°56'7 1.8
2016-Dec-02 21:25N 36°58' W 076°05'3 0.7
2016-Dec-02 16:33N 36°54' W 076°05'0 0.0
2016-Dec-02 15:33N 36°54' W 076°05'5 4.5
2016-Dec-02 14:33N 36°57' W 076°01'4 3.5
2016-Dec-02 13:33N 36°55' W 075°57'7 2.3
2016-Dec-02 10:27N 36°54' W 076°05'1 0.1
2016-Dec-02 01:33N 36°55' W 076°05'1 0.3
2016-Dec-01 21:33N 36°54' W 076°05'5 5.3
2016-Dec-01 20:31N 36°56' W 075°59'1 0.7
2016-Dec-01 19:28N 36°56' W 075°58'6 2.0
2016-Dec-01 16:26N 36°54' W 076°05'0 0.1
2016-Dec-01 15:33N 36°54' W 076°06'5 5.4
2016-Dec-01 14:33N 36°58' W 075°60'1 1.4
2016-Dec-01 13:33N 36°56' W 076°01'0 0.0
2016-Nov-30 21:33N 36°57' W 076°01'4 4.2
2016-Nov-30 20:33N 36°54' W 076°05'0 0.0
2016-Nov-30 19:33N 36°54' W 076°05'0 0.0
2016-Nov-30 17:32N 36°54' W 076°05'4 1.8
2016-Nov-30 15:18N 36°59' W 076°05'2 2.2
2016-Nov-30 14:24N 36°57' W 076°03'2 2.4
2016-Nov-30 13:31N 36°57' W 076°00'5 4.3
2016-Nov-30 12:27N 36°54' W 076°05'0 0.0
2016-Nov-30 10:33N 36°54' W 076°05'0 0.0
2016-Nov-29 18:33N 36°54' W 076°06'0 0.1
2016-Nov-29 17:32N 36°54' W 076°05'0 0.0
2016-Nov-29 16:33N 36°54' W 076°05'0 0.0
2016-Nov-29 15:33N 36°54' W 076°05'0 0.0
2016-Nov-29 14:32N 36°54' W 076°05'0 0.0
2016-Nov-29 13:24N 36°54' W 076°05'0 0.0
2016-Nov-29 12:31N 36°54' W 076°05'2 0.3
2016-Nov-29 07:13N 36°56' W 076°05'1 0.1
2016-Nov-29 02:29N 36°56' W 076°05'1 0.1
2016-Nov-28 20:33N 36°56' W 076°05'1 1.1
2016-Nov-28 19:33N 36°56' W 076°04'2 1.5
2016-Nov-28 18:16N 36°54' W 076°05'0 0.1
2016-Nov-28 17:33N 36°54' W 076°05'0 0.0
2016-Nov-28 15:33N 36°54' W 076°05'0 0.0
2016-Nov-28 14:33N 36°54' W 076°05'0 0.0
2016-Nov-28 13:33N 36°54' W 076°05'0 0.0
2016-Nov-28 12:33N 36°54' W 076°05'0 0.0
2016-Nov-28 09:22N 36°54' W 076°05'1 1.1
2016-Nov-28 08:25N 36°55' W 076°05'0 0.0
2016-Nov-27 23:28N 36°55' W 076°05'1 0.3
2016-Nov-27 20:26N 36°54' W 076°05'1 0.8
2016-Nov-27 19:33N 36°55' W 076°05'1 0.6
2016-Nov-27 18:23N 36°54' W 076°05'3 3.3
2016-Nov-27 17:33N 36°56' W 076°03'3 0.9
2016-Nov-27 14:33N 36°54' W 076°05'0 0.3
2016-Nov-27 13:33N 36°55' W 076°05'3 2.9
2016-Nov-27 12:33N 36°57' W 076°03'2 0.6
2016-Nov-27 09:10N 36°55' W 076°05'1 0.5
2016-Nov-27 07:11N 36°54' W 076°05'0 0.0
2016-Nov-27 04:15N 36°54' W 076°05'2 1.7
2016-Nov-27 03:14N 36°56' W 076°04'2 0.3
2016-Nov-26 21:32N 36°54' W 076°05'0 0.0
2016-Nov-26 20:30N 36°54' W 076°05'4 1.0
2016-Nov-26 16:33N 36°56' W 076°01'4 3.6
2016-Nov-26 15:24N 36°54' W 076°05'4 4.8
2016-Nov-26 14:33N 36°56' W 076°01'2 1.7
2016-Nov-26 13:33N 36°56' W 076°03'3 2.6
2016-Nov-26 12:32N 36°57' W 075°60'  
Track history (hours):
 
Tides and Currents Weather Stations Pressure Air Temp Water Temp Dewpoint Dewpoint Depression Visibility Wind Speed Wind Dir Waves Ship Positions

Norfolk

Owner: Virginia Pilot Boat Corporation, Virginia Beach, VA. More information available from US FCC via Universal Licensing System and Coast Guard Vessel Documentation Center.

Last reported at 2016-Dec-05 20:25 UTC. Time now 2016-Dec-06 12:15 UTC.
Position N 36°54' W 076°05'.

Length 18 m; draft 1.5 m.

Type: Pilot. MMSI: 367512630.

Date/timePositionNaut miles runAvg speedWind from/ knotsBaromVisibWave heightAir tempDewpointWater temp
2016-Dec-05 20:25N 36°54' W 076°05'2 2.8
2016-Dec-05 19:33N 36°56' W 076°03'4 3.7
2016-Dec-05 18:33N 36°56' W 075°58'6 5.9
2016-Dec-05 17:34N 36°54' W 076°05'0 0.0
2016-Dec-05 16:33N 36°54' W 076°05'0 0.0
2016-Dec-05 15:33N 36°54' W 076°05'0 0.0
2016-Dec-05 14:33N 36°54' W 076°05'0 0.0
2016-Dec-05 13:33N 36°54' W 076°05'0 0.0
2016-Dec-05 12:34N 36°54' W 076°05'0 0.0
2016-Dec-05 09:30N 36°54' W 076°05'1 0.9
2016-Dec-05 08:27N 36°55' W 076°05'1 0.2
2016-Dec-05 02:12N 36°54' W 076°06'0 0.0
2016-Dec-04 21:34N 36°54' W 076°05'0 0.0
2016-Dec-04 20:33N 36°54' W 076°05'6 1.1
2016-Dec-04 15:27N 36°59' W 076°02'6 2.6
2016-Dec-04 13:15N 36°54' W 076°05'0 0.0
2016-Dec-04 06:16N 36°54' W 076°05'0 0.0
2016-Dec-04 04:26N 36°54' W 076°05'3 1.1
2016-Dec-04 01:19N 36°57' W 076°02'3 1.2
2016-Dec-03 22:20N 36°54' W 076°05'0 0.1
2016-Dec-03 21:32N 36°54' W 076°05'0 0.0
2016-Dec-03 20:33N 36°54' W 076°05'0 0.0
2016-Dec-03 17:33N 36°54' W 076°05'0 0.0
2016-Dec-03 16:33N 36°54' W 076°05'4 3.6
2016-Dec-03 15:33N 36°57' W 076°03'4 3.5
2016-Dec-03 14:33N 36°54' W 076°05'0 0.0
2016-Dec-03 13:31N 36°54' W 076°05'1 0.7
2016-Dec-03 12:33N 36°55' W 076°05'0 0.0
2016-Dec-03 02:25N 36°55' W 076°05'7 7.3
2016-Dec-03 01:25N 36°56' W 075°56'7 1.8
2016-Dec-02 21:25N 36°58' W 076°05'3 0.7
2016-Dec-02 16:33N 36°54' W 076°05'0 0.0
2016-Dec-02 15:33N 36°54' W 076°05'5 4.5
2016-Dec-02 14:33N 36°57' W 076°01'4 3.5
2016-Dec-02 13:33N 36°55' W 075°57'7 2.3
2016-Dec-02 10:27N 36°54' W 076°05'1 0.1
2016-Dec-02 01:33N 36°55' W 076°05'1 0.3
2016-Dec-01 21:33N 36°54' W 076°05'5 5.3
2016-Dec-01 20:31N 36°56' W 075°59'1 0.7
2016-Dec-01 19:28N 36°56' W 075°58'6 2.0
2016-Dec-01 16:26N 36°54' W 076°05'0 0.1
2016-Dec-01 15:33N 36°54' W 076°06'5 5.4
2016-Dec-01 14:33N 36°58' W 075°60'1 1.4
2016-Dec-01 13:33N 36°56' W 076°01'0 0.0
2016-Nov-30 21:33N 36°57' W 076°01'4 4.2
2016-Nov-30 20:33N 36°54' W 076°05'0 0.0
2016-Nov-30 19:33N 36°54' W 076°05'0 0.0
2016-Nov-30 17:32N 36°54' W 076°05'4 1.8
2016-Nov-30 15:18N 36°59' W 076°05'2 2.2
2016-Nov-30 14:24N 36°57' W 076°03'2 2.4
2016-Nov-30 13:31N 36°57' W 076°00'5 4.3
2016-Nov-30 12:27N 36°54' W 076°05'0 0.0
2016-Nov-30 10:33N 36°54' W 076°05'0 0.0
2016-Nov-29 18:33N 36°54' W 076°06'0 0.1
2016-Nov-29 17:32N 36°54' W 076°05'0 0.0
2016-Nov-29 16:33N 36°54' W 076°05'0 0.0
2016-Nov-29 15:33N 36°54' W 076°05'0 0.0
2016-Nov-29 14:32N 36°54' W 076°05'0 0.0
2016-Nov-29 13:24N 36°54' W 076°05'0 0.0
2016-Nov-29 12:31N 36°54' W 076°05'2 0.3
2016-Nov-29 07:13N 36°56' W 076°05'1 0.1
2016-Nov-29 02:29N 36°56' W 076°05'1 0.1
2016-Nov-28 20:33N 36°56' W 076°05'1 1.1
2016-Nov-28 19:33N 36°56' W 076°04'2 1.5
2016-Nov-28 18:16N 36°54' W 076°05'0 0.1
2016-Nov-28 17:33N 36°54' W 076°05'0 0.0
2016-Nov-28 15:33N 36°54' W 076°05'0 0.0
2016-Nov-28 14:33N 36°54' W 076°05'0 0.0
2016-Nov-28 13:33N 36°54' W 076°05'0 0.0
2016-Nov-28 12:33N 36°54' W 076°05'0 0.0
2016-Nov-28 09:22N 36°54' W 076°05'1 1.1
2016-Nov-28 08:25N 36°55' W 076°05'0 0.0
2016-Nov-27 23:28N 36°55' W 076°05'1 0.3
2016-Nov-27 20:26N 36°54' W 076°05'1 0.8
2016-Nov-27 19:33N 36°55' W 076°05'1 0.6
2016-Nov-27 18:23N 36°54' W 076°05'3 3.3
2016-Nov-27 17:33N 36°56' W 076°03'3 0.9
2016-Nov-27 14:33N 36°54' W 076°05'0 0.3
2016-Nov-27 13:33N 36°55' W 076°05'3 2.9
2016-Nov-27 12:33N 36°57' W 076°03'2 0.6
2016-Nov-27 09:10N 36°55' W 076°05'1 0.5
2016-Nov-27 07:11N 36°54' W 076°05'0 0.0
2016-Nov-27 04:15N 36°54' W 076°05'2 1.7
2016-Nov-27 03:14N 36°56' W 076°04'2 0.3
2016-Nov-26 21:32N 36°54' W 076°05'0 0.0
2016-Nov-26 20:30N 36°54' W 076°05'4 1.0
2016-Nov-26 16:33N 36°56' W 076°01'4 3.6
2016-Nov-26 15:24N 36°54' W 076°05'4 4.8
2016-Nov-26 14:33N 36°56' W 076°01'2 1.7
2016-Nov-26 13:33N 36°56' W 076°03'3 2.6
2016-Nov-26 12:32N 36°57' W 075°60'  

Dump ship's entire track history